Sunday, September 23, 2018, 5:16 AM GMT
Back to Local

CYGP, Gaspe, Que.

Location: , , Canada Lat: 48.767
Local Time: 5:16 AM GMT ( 5:16 GMT) Lon: -64.483
Time Zone: GMT Elev: 108 ft

Show me the last for .
Show Decoded

2018-09-23 05:00 METAR CYGP 230500Z 00000KT 15SM SKC 01/M02 A3006 RMK SLP182 =
2018-09-23 04:00 METAR CYGP 230400Z 28004KT 15SM SKC 02/M03 A3006 RMK SLP183 =
2018-09-23 03:00 METAR CYGP 230300Z 27005KT 15SM SKC 03/M01 A3006 RMK SLP183 =
2018-09-23 02:00 METAR CYGP 230200Z 27006KT 15SM SKC 06/M02 A3004 RMK SLP174 =
2018-09-23 01:00 METAR CYGP 230100Z 28005KT 230V300 15SM SKC 06/M01 A3003 RMK SLP171 =
2018-09-23 00:00 METAR CYGP 230000Z 28008KT 15SM SKC 08/M02 A2999 RMK SLP159 =
2018-09-22 23:00 METAR CYGP 222300Z 28012KT 15SM SKC 10/M02 A2995 RMK SLP143 =
2018-09-22 22:00 METAR CYGP 222200Z 29012G21KT 15SM SKC 11/M02 A2991 RMK SLP129 =
2018-09-22 21:00 METAR CYGP 222100Z 29012G29KT 15SM SKC 13/M02 A2986 RMK SLP114 =
2018-09-22 20:00 METAR CYGP 222000Z 27021G32KT 15SM FEW055 14/M02 A2982 RMK CF1 CF TR SLP099 =
2018-09-22 19:00 METAR CYGP 221900Z 28016G28KT 260V320 15SM FEW050 14/M02 A2978 RMK CU1 CU TR
                 SLP087 DENSITY ALT 300FT =
2018-09-22 18:00 METAR CYGP 221800Z 28016G28KT 15SM FEW050 15/M00 A2975 RMK CF1 CF TR SLP076
                 DENSITY ALT 400FT =
2018-09-22 17:00 METAR CYGP 221700Z 30022G34KT 15SM FEW005 14/M01 A2971 RMK CF1 CF TR SLP062
                 DENSITY ALT 300FT =
2018-09-22 16:00 METAR CYGP 221600Z 30019G32KT 260V330 15SM FEW050 14/M01 A2967 RMK CF1 CF TR
                 SLP049 DENSITY ALT 300FT =
2018-09-22 15:00 METAR CYGP 221500Z 27027G39KT 15SM FEW050 13/01 A2961 RMK SC1 SC TR PRESRR
                 SLP028 DENSITY ALT 200FT =
2018-09-22 14:00 METAR CYGP 221400Z 28025G36KT 15SM FEW040 13/02 A2954 RMK SC1 SC TR SLP007
                 DENSITY ALT 300FT =
2018-09-22 13:00 METAR CYGP 221300Z 28022G42KT 15SM FEW030 13/04 A2949 RMK SC1 PRESRR SLP989
                 DENSITY ALT 500FT =
2018-09-22 12:00 METAR CYGP 221200Z 29016G30KT 10SM BKN030 15/10 A2941 RMK SC6 PRESRR SLP960
                 DENSITY ALT 700FT =
2018-09-22 11:00 METAR CYGP 221100Z 26018G26KT 10SM FEW060 16/11 A2934 RMK SC2 SLP937 DENSITY ALT
                 1000FT =
2018-09-22 10:23 METAR CYGP 221023Z 26014G24KT 10SM SCT060 16/12 A2932 RMK SC4 SLP930 DENSITY ALT
                 1000FT =
2018-09-22 10:00 METAR CYGP 221000Z 26013G23KT 10SM -RA BKN020 17/14 A2931 RMK SC7 PRESRR SLP928
                 DENSITY ALT 1100FT =
2018-09-22 09:00 METAR CYGP 220900Z 21008G19KT 140V280 15SM FEW040 SCT100 16/13 A2928 RMK SC1AC3
                 SLP918 DENSITY ALT 1100FT =
2018-09-22 08:53 METAR CYGP 220853Z 20007G20KT 170V260 15SM FEW040 SCT100 16/13 A2928 RMK SC1AC3
                 PRESFR SLP916 DENSITY ALT 1100FT =
2018-09-22 08:00 METAR CYGP 220800Z 21013G19KT 180V250 15SM -RA OVC030 16/13 A2932 RMK SC8 SLP931
                 DENSITY ALT 900FT =
2018-09-22 07:00 METAR CYGP 220700Z 22018G35KT 15SM OVC030 15/12 A2933 RMK SC8 SLP936 DENSITY ALT
                 900FT =
2018-09-22 06:00 METAR CYGP 220600Z 22009G29KT 140V270 15SM -RA OVC040 15/11 A2938 RMK SC8 PRESFR
                 SLP950 DENSITY ALT 800FT =

Support USWX by starting your Amazon purchase here.